Allendale, Massachusetts
Current Conditions -  °F | °C
As of 11:54 PM on Monday 26 Jan 2015 (Local Time) from KPSF Reporting Station
Overcast Overcast  
Wind Chill:   Ceiling: 7000
Heat Index: 17°   Visibility: 10mi
Dew Point:   Wind: 14mph
Humidity: 71%   Direction: 30°NNE
Pressure: 29.77"   Gusts: 23mph
Location:  42.4608°N, 73.282°W
Report Text: KPSF 270454Z AUTO 03012G20KT 10SM FEW055 OVC070 M08/M13 A2977 RMK AO2 SLP102 T10831128 410671133
Loading
Personal Weather Stations






























Interactive Weather Map New forecast layout! Learn more

10-Day Weather Forecast

Advertisements
Track Severe Weather on mobile